Terminal Aerodrome Forecast
Issued by NWS Jackson, MS

Home | Current Version | Previous Version | Text Only | Print | Product List | Glossary On
Versions: 1 2 3 4 5 6 7 8 9 10 11 12
000
FTUS44 KJAN 292300
TAFMEI
TAF
KMEI 292320Z 3000/3024 17005KT P6SM VCSH SCT060
     FM300400 VRB03KT P6SM BKN120
     FM301500 18006KT 4SM SHRA VCTS OVC030CB
     FM301800 19013KT P6SM -RA VCTS OVC050CB=

USA.gov is the U.S. government's official web portal to all federal, state and local government web resources and services.